Time;durP1;ratioP1;P1;durP2;ratioP2;P2;SDS_P1;SDS_P2;PMS_P1;PMS_P2;Temp;Humidity;BMP_temperature;BMP_pressure;BME280_temperature;BME280_humidity;BME280_pressure;Samples;Min_cycle;Max_cycle;Signal;HPM_P1;HPM_P2
2021/08/22 00:02:06;;;;;;;3.67;1.55;;;18.70;99.90;;;17.34;95.61;101095.50;2566162;30;137704;-43
2021/08/22 00:04:34;;;;;;;2.58;1.45;;;18.60;99.90;;;17.27;95.46;101081.06;2567564;30;137020;-41
2021/08/22 00:07:01;;;;;;;3.47;1.65;;;18.50;99.90;;;17.21;95.17;101074.63;2567096;30;138317;-39
2021/08/22 00:09:29;;;;;;;2.78;1.58;;;18.50;99.90;;;17.19;95.77;101079.56;2568406;30;136869;-42
2021/08/22 00:11:57;;;;;;;2.13;1.30;;;18.50;99.90;;;17.15;95.35;101065.47;2568657;30;136743;-39
2021/08/22 00:14:24;;;;;;;3.83;1.67;;;18.40;99.90;;;17.08;95.91;101062.88;2568735;30;137440;-39
2021/08/22 00:16:52;;;;;;;4.07;1.58;;;18.30;99.90;;;17.04;95.83;101063.63;2567416;30;138849;-40
2021/08/22 00:19:19;;;;;;;3.65;1.50;;;18.30;99.90;;;16.95;96.48;101052.97;2566816;30;137905;-39
2021/08/22 00:21:47;;;;;;;2.58;1.40;;;18.30;99.90;;;16.92;96.84;101049.88;2567617;30;137499;-40
2021/08/22 00:24:14;;;;;;;3.63;1.50;;;18.20;99.90;;;16.92;96.71;101055.38;2567652;30;138078;-40
2021/08/22 00:26:41;;;;;;;2.20;1.30;;;18.20;99.90;;;16.87;96.97;101047.88;2568348;30;138390;-39
2021/08/22 00:29:09;;;;;;;2.58;1.70;;;18.20;99.90;;;16.79;97.06;101049.13;2568756;30;139567;-39
2021/08/22 00:31:37;;;;;;;3.47;1.42;;;18.10;99.90;;;16.74;96.48;101050.94;2568499;30;137803;-40
2021/08/22 00:34:04;;;;;;;4.65;1.90;;;18.00;99.90;;;16.67;97.31;101057.47;2567182;30;137521;-39
2021/08/22 00:36:32;;;;;;;2.28;1.30;;;18.00;99.90;;;16.60;97.13;101058.69;2568883;30;137676;-39
2021/08/22 00:39:02;;;;;;;4.25;1.52;;;17.90;99.90;;;16.52;97.22;101058.03;2567904;30;138406;-41
2021/08/22 00:41:32;;;;;;;2.95;1.50;;;17.80;99.90;;;16.42;96.96;101060.56;2567901;30;138492;-41
2021/08/22 00:44:00;;;;;;;3.55;1.45;;;17.70;99.90;;;16.37;97.30;101060.47;2568583;30;137680;-41
2021/08/22 00:46:29;;;;;;;3.05;1.67;;;17.70;99.90;;;16.31;97.32;101058.72;2569327;30;137512;-42
2021/08/22 00:48:57;;;;;;;3.50;1.70;;;17.60;99.90;;;16.27;97.39;101065.78;2568648;30;137495;-39
2021/08/22 00:51:24;;;;;;;;;;;17.60;99.90;;;16.22;97.47;101072.00;2567630;30;139083;-40
2021/08/22 00:53:52;;;;;;;2.97;1.52;;;17.50;99.90;;;16.16;97.31;101068.31;2567323;30;137934;-39
2021/08/22 00:56:20;;;;;;;3.22;1.60;;;17.50;99.90;;;16.11;97.50;101059.97;2569323;30;137761;-39
2021/08/22 00:58:47;;;;;;;2.88;1.55;;;17.40;99.90;;;16.08;97.56;101065.97;2569171;30;138288;-40
2021/08/22 01:01:22;;;;;;;3.15;1.70;;;17.40;99.90;;;16.06;97.24;101066.22;2568785;30;138453;-41
2021/08/22 01:04:13;;;;;;;3.45;1.70;;;17.40;99.90;;;16.08;97.21;101065.97;2568616;30;138429;-42
2021/08/22 01:06:58;;;;;;;4.35;1.58;;;17.40;99.90;;;16.07;97.83;101064.28;2568417;30;139089;-39
2021/08/22 01:09:39;;;;;;;2.63;1.70;;;17.30;99.90;;;16.05;98.49;101067.31;2569173;30;137510;-39
2021/08/22 01:12:19;;;;;;;3.25;1.67;;;17.40;99.90;;;16.02;98.80;101061.44;2569000;30;138431;-42
2021/08/22 01:14:53;;;;;;;3.17;1.58;;;17.30;99.90;;;15.96;98.50;101066.84;2567427;30;136938;-40
2021/08/22 01:17:25;;;;;;;4.13;1.60;;;17.20;99.90;;;15.90;97.80;101065.03;2567833;30;138863;-40
2021/08/22 01:20:16;;;;;;;3.25;1.80;;;17.20;99.90;;;15.83;97.85;101061.56;2567955;30;136729;-42
2021/08/22 01:22:46;;;;;;;4.03;1.40;;;17.20;99.90;;;15.77;98.24;101066.09;2567881;30;137337;-39
2021/08/22 01:25:15;;;;;;;3.10;1.70;;;17.10;99.90;;;15.72;98.08;101073.44;2569020;30;137389;-41
2021/08/22 01:27:45;;;;;;;4.43;1.80;;;17.00;99.90;;;15.67;97.82;101077.75;2567007;30;137417;-41
2021/08/22 01:30:16;;;;;;;3.80;1.58;;;17.00;99.90;;;15.63;97.85;101084.78;2567971;30;137789;-42
2021/08/22 01:32:48;;;;;;;4.00;1.75;;;17.00;99.90;;;15.60;98.12;101088.00;2568927;30;139079;-39
2021/08/22 01:35:22;;;;;;;3.30;1.70;;;16.90;99.90;;;15.58;98.22;101084.66;2569393;30;137475;-40
2021/08/22 01:37:53;;;;;;;3.20;1.70;;;16.90;99.90;;;15.56;98.03;101086.00;2566673;30;137381;-40
2021/08/22 01:40:23;;;;;;;2.95;1.58;;;16.90;99.90;;;15.52;98.01;101086.47;2568345;30;137038;-39
2021/08/22 01:42:51;;;;;;;4.55;2.08;;;16.80;99.90;;;15.49;97.81;101095.19;2568252;30;136767;-39
2021/08/22 01:45:21;;;;;;;3.17;1.80;;;16.80;99.90;;;15.48;97.77;101100.94;2567936;30;136999;-41
2021/08/22 01:47:50;;;;;;;3.00;1.73;;;16.80;99.90;;;15.44;98.05;101106.06;2569437;30;137357;-39
2021/08/22 01:50:22;;;;;;;3.20;1.90;;;16.70;99.90;;;15.47;98.82;101105.56;2565838;30;137542;-39
2021/08/22 01:53:04;;;;;;;3.72;1.80;;;16.70;99.90;;;15.52;99.61;101105.72;2568723;30;137720;-43
2021/08/22 01:55:33;;;;;;;3.47;2.00;;;16.80;99.90;;;15.59;99.77;101100.09;2566777;30;137562;-39
2021/08/22 01:58:01;;;;;;;4.05;1.92;;;16.80;99.90;;;15.64;100.00;101107.63;2567336;30;137712;-39
2021/08/22 02:00:28;;;;;;;3.10;1.65;;;16.90;99.90;;;15.70;100.00;101097.59;2568888;30;138543;-42
2021/08/22 02:03:17;;;;;;;3.75;2.28;;;16.90;99.90;;;15.78;100.00;101094.47;2568262;30;138920;-39
2021/08/22 02:05:54;;;;;;;3.78;2.50;;;17.00;99.90;;;15.85;100.00;101086.09;2567642;30;136966;-42
2021/08/22 02:08:27;;;;;;;4.00;2.22;;;17.10;99.90;;;15.87;100.00;101086.69;2565834;30;137444;-39
2021/08/22 02:11:13;;;;;;;3.65;2.30;;;17.10;99.90;;;15.87;100.00;101090.25;2568303;30;138359;-42
2021/08/22 02:13:45;;;;;;;3.70;2.10;;;17.10;99.90;;;15.82;100.00;101084.66;2567849;30;138168;-39
2021/08/22 02:16:20;;;;;;;3.45;2.38;;;17.10;99.90;;;15.84;100.00;101081.66;2569149;30;136950;-41
2021/08/22 02:18:55;;;;;;;4.38;2.63;;;17.10;99.90;;;15.84;100.00;101070.66;2567324;30;138708;-42
2021/08/22 02:21:25;;;;;;;4.78;2.90;;;17.10;99.90;;;15.81;100.00;101066.47;2568302;30;136903;-41
2021/08/22 02:23:57;;;;;;;4.72;2.83;;;17.10;99.90;;;15.80;100.00;101075.78;2568432;30;138466;-40
2021/08/22 02:26:25;;;;;;;6.03;2.80;;;17.10;99.90;;;15.78;100.00;101072.44;2567712;30;138156;-42
2021/08/22 02:29:01;;;;;;;5.13;3.00;;;17.10;99.90;;;15.75;100.00;101075.69;2569265;30;138286;-39
2021/08/22 02:31:29;;;;;;;5.28;3.10;;;17.10;99.90;;;15.74;100.00;101071.25;2567269;30;136826;-39
2021/08/22 02:33:58;;;;;;;6.10;3.20;;;17.00;99.90;;;15.77;100.00;101077.09;2568014;30;138346;-41
2021/08/22 02:36:27;;;;;;;4.97;2.78;;;17.10;99.90;;;15.71;100.00;101069.81;2568733;30;137484;-39
2021/08/22 02:38:56;;;;;;;4.82;2.50;;;17.00;99.90;;;15.67;100.00;101076.88;2566782;30;138376;-39
2021/08/22 02:41:24;;;;;;;7.95;2.60;;;17.00;99.90;;;15.70;100.00;101081.91;2568308;30;137618;-42
2021/08/22 02:43:53;;;;;;;4.55;2.90;;;17.00;99.90;;;15.68;100.00;101075.81;2567620;30;138599;-42
2021/08/22 02:46:21;;;;;;;5.82;3.05;;;17.00;99.90;;;15.74;100.00;101080.34;2567252;30;138384;-41
2021/08/22 02:48:48;;;;;;;6.55;3.40;;;17.00;99.90;;;15.78;100.00;101081.56;2566242;30;137501;-42
2021/08/22 02:51:16;;;;;;;5.22;3.00;;;17.00;99.90;;;15.71;100.00;101072.56;2579098;30;138201;-39
2021/08/22 02:53:43;;;;;;;5.30;3.70;;;17.10;99.90;;;15.96;100.00;101086.09;2567542;30;139743;-39
2021/08/22 02:56:11;;;;;;;5.38;3.70;;;17.10;99.90;;;15.98;100.00;101090.53;2568922;30;136920;-39
2021/08/22 02:58:39;;;;;;;6.50;4.25;;;17.20;99.90;;;16.06;100.00;101098.38;2568865;30;138847;-39
2021/08/22 03:01:06;;;;;;;9.20;4.88;;;17.20;99.90;;;16.14;100.00;101095.25;2569110;30;136909;-39
2021/08/22 03:03:34;;;;;;;6.78;4.45;;;17.30;99.90;;;16.14;100.00;101100.75;2571063;30;137268;-39
2021/08/22 03:06:01;;;;;;;8.10;5.25;;;17.30;99.90;;;16.23;100.00;101084.69;2569341;30;137517;-39
2021/08/22 03:08:29;;;;;;;8.27;5.28;;;17.40;99.90;;;16.22;100.00;101092.13;2570357;30;137341;-39
2021/08/22 03:10:56;;;;;;;7.43;4.63;;;17.40;99.90;;;16.26;100.00;101084.22;2568192;30;137717;-39
2021/08/22 03:13:24;;;;;;;7.53;4.95;;;17.40;99.90;;;16.24;100.00;101078.97;2570106;30;138441;-39
2021/08/22 03:15:51;;;;;;;8.43;5.40;;;17.50;99.90;;;16.28;100.00;101070.22;2569330;30;136936;-39
2021/08/22 03:18:19;;;;;;;9.32;5.88;;;17.50;99.90;;;16.29;100.00;101075.47;2569809;30;138434;-39
2021/08/22 03:20:46;;;;;;;11.48;6.95;;;17.50;99.90;;;16.36;100.00;101078.06;2569504;30;137209;-39
2021/08/22 03:23:14;;;;;;;10.10;6.72;;;17.50;99.90;;;16.39;100.00;101077.56;2567692;30;138343;-39
2021/08/22 03:25:41;;;;;;;8.85;6.32;;;17.60;99.90;;;16.39;100.00;101074.81;2567017;30;136867;-39
2021/08/22 03:28:09;;;;;;;8.90;6.50;;;17.60;99.90;;;16.39;100.00;101069.31;2569455;30;137829;-39
2021/08/22 03:30:37;;;;;;;12.73;6.85;;;17.60;99.90;;;16.39;100.00;101070.16;2570480;30;136699;-39
2021/08/22 03:33:04;;;;;;;10.98;7.75;;;17.60;99.90;;;16.51;100.00;101074.78;2569272;30;137463;-39
2021/08/22 03:35:32;;;;;;;10.65;7.03;;;17.70;99.90;;;16.46;100.00;101074.69;2569770;30;137601;-39
2021/08/22 03:37:59;;;;;;;13.38;7.57;;;17.70;99.90;;;16.50;100.00;101068.44;2568985;30;137544;-39
2021/08/22 03:40:27;;;;;;;12.82;8.50;;;17.70;99.90;;;16.56;100.00;101071.28;2568608;30;137236;-39
2021/08/22 03:42:54;;;;;;;13.27;8.00;;;17.70;99.90;;;16.61;100.00;101076.88;2571179;30;138489;-39
2021/08/22 03:45:22;;;;;;;;;;;17.80;99.90;;;16.62;100.00;101075.81;2568921;30;137469;-40
2021/08/22 03:47:50;;;;;;;10.40;7.85;;;17.80;99.90;;;16.59;100.00;101066.13;2566411;30;139208;-39
2021/08/22 03:50:18;;;;;;;10.82;8.02;;;17.80;99.90;;;16.61;100.00;101071.38;2569288;30;137319;-39
2021/08/22 03:52:52;;;;;;;12.13;7.45;;;17.80;99.90;;;16.65;100.00;101072.56;2570151;30;137203;-39
2021/08/22 03:55:20;;;;;;;10.98;8.00;;;17.80;99.90;;;16.68;100.00;101083.06;2568823;30;137462;-39
2021/08/22 03:57:47;;;;;;;13.50;7.95;;;17.90;99.90;;;16.67;100.00;101078.66;2570009;30;138494;-39
2021/08/22 04:00:16;;;;;;;12.45;7.80;;;17.90;99.90;;;16.66;100.00;101077.84;2568425;30;138387;-39
2021/08/22 04:02:44;;;;;;;10.25;7.97;;;17.80;99.90;;;16.71;100.00;101071.59;2565424;30;137241;-39
2021/08/22 04:05:33;;;;;;;11.25;7.50;;;17.90;99.90;;;16.70;100.00;101077.34;2568742;30;136833;-39
2021/08/22 04:08:00;;;;;;;12.57;8.25;;;17.90;99.90;;;16.71;100.00;101074.34;2567372;30;137342;-39
2021/08/22 04:10:29;;;;;;;10.73;7.72;;;17.90;99.90;;;16.73;100.00;101083.19;2567342;30;137292;-39
2021/08/22 04:12:57;;;;;;;11.25;7.93;;;17.90;99.90;;;16.72;100.00;101083.44;2568743;30;138038;-39
2021/08/22 04:15:25;;;;;;;12.27;7.47;;;17.90;99.90;;;16.72;100.00;101076.00;2568763;30;137300;-39
2021/08/22 04:17:52;;;;;;;11.70;7.45;;;17.90;99.90;;;16.71;100.00;101077.09;2566682;30;138372;-39
2021/08/22 04:20:20;;;;;;;11.70;8.10;;;17.90;99.90;;;16.73;100.00;101080.44;2569794;30;137463;-39
2021/08/22 04:22:47;;;;;;;12.13;7.53;;;17.90;99.90;;;16.75;100.00;101074.66;2569722;30;138201;-39
2021/08/22 04:25:15;;;;;;;11.55;8.07;;;18.00;99.90;;;16.80;100.00;101080.25;2570027;30;138141;-41
2021/08/22 04:27:43;;;;;;;9.35;7.00;;;18.00;99.90;;;16.80;100.00;101083.00;2568442;30;137530;-39
2021/08/22 04:30:12;;;;;;;12.15;7.45;;;17.90;99.90;;;16.78;100.00;101083.28;2568568;30;137526;-39
2021/08/22 04:32:40;;;;;;;10.98;8.00;;;18.00;99.90;;;16.72;100.00;101084.28;2568813;30;139318;-39
2021/08/22 04:35:09;;;;;;;11.38;8.20;;;17.90;99.90;;;16.70;100.00;101091.94;2567719;30;137503;-39
2021/08/22 04:37:37;;;;;;;11.35;8.57;;;17.90;99.90;;;16.69;100.00;101087.50;2567934;30;138246;-39
2021/08/22 04:40:06;;;;;;;12.63;8.10;;;17.90;99.90;;;16.73;100.00;101091.47;2568919;30;137613;-39
2021/08/22 04:42:34;;;;;;;12.43;8.75;;;17.90;99.90;;;16.71;100.00;101087.25;2568059;30;137909;-39
2021/08/22 04:45:02;;;;;;;15.00;9.10;;;17.90;99.90;;;16.64;100.00;101092.91;2570201;30;137471;-39
2021/08/22 04:47:29;;;;;;;13.02;8.55;;;17.90;99.90;;;16.70;100.00;101096.63;2568163;30;138192;-39
2021/08/22 04:49:57;;;;;;;12.18;8.82;;;17.90;99.90;;;16.70;100.00;101094.69;2568664;30;137973;-39
2021/08/22 04:52:24;;;;;;;12.35;8.48;;;17.90;99.90;;;16.70;100.00;101097.44;2568115;30;138270;-39
2021/08/22 04:54:52;;;;;;;12.40;8.57;;;17.90;99.90;;;16.65;100.00;101103.69;2567673;30;138029;-39
2021/08/22 04:57:19;;;;;;;13.82;8.40;;;17.90;99.90;;;16.62;100.00;101098.69;2567859;30;138300;-39
2021/08/22 04:59:47;;;;;;;14.40;9.20;;;17.80;99.90;;;16.68;100.00;101102.34;2568487;30;138090;-39
2021/08/22 05:02:14;;;;;;;12.52;8.35;;;17.80;99.90;;;16.58;100.00;101097.50;2567062;30;138516;-39
2021/08/22 05:04:42;;;;;;;13.13;8.68;;;17.80;99.90;;;16.58;100.00;101103.03;2568259;30;137037;-39
2021/08/22 05:07:09;;;;;;;14.20;9.32;;;17.80;99.90;;;16.52;100.00;101109.50;2569371;30;137169;-39
2021/08/22 05:09:37;;;;;;;11.23;7.85;;;17.80;99.90;;;16.52;100.00;101099.31;2567334;30;137649;-39
2021/08/22 05:12:05;;;;;;;16.05;9.07;;;17.70;99.90;;;16.54;100.00;101112.84;2568471;30;139170;-39
2021/08/22 05:14:33;;;;;;;;;;;17.70;99.90;;;16.57;100.00;101103.25;2569527;30;137538;-39
2021/08/22 05:17:02;;;;;;;14.70;9.35;;;17.80;99.90;;;16.56;100.00;101109.84;2569578;30;138807;-39
2021/08/22 05:19:30;;;;;;;14.18;9.32;;;17.70;99.90;;;16.59;100.00;101114.88;2568288;30;137510;-39
2021/08/22 05:21:58;;;;;;;13.65;9.20;;;17.80;99.90;;;16.61;100.00;101110.78;2568400;30;138463;-39
2021/08/22 05:24:25;;;;;;;;;;;17.80;99.90;;;16.65;99.62;101119.38;2568259;30;137589;-39
2021/08/22 05:26:52;;;;;;;15.20;9.50;;;17.80;99.90;;;16.66;99.86;101115.53;2571715;30;139574;-39
2021/08/22 05:29:20;;;;;;;18.02;10.98;;;17.80;99.90;;;16.67;99.64;101123.56;2571261;30;137603;-39
2021/08/22 05:31:48;;;;;;;17.98;10.20;;;17.80;99.90;;;16.63;99.58;101122.41;2569440;30;136906;-39
2021/08/22 05:34:15;;;;;;;17.50;10.57;;;17.80;99.90;;;16.66;99.11;101121.03;2568855;30;137702;-40
2021/08/22 05:36:43;;;;;;;17.02;10.88;;;17.80;99.90;;;16.62;98.95;101128.13;2570151;30;138170;-39
2021/08/22 05:39:11;;;;;;;17.40;10.50;;;17.80;99.90;;;16.62;99.73;101126.22;2570304;30;137507;-39
2021/08/22 05:41:38;;;;;;;16.50;10.40;;;17.80;99.90;;;16.62;99.45;101125.38;2569503;30;138412;-39
2021/08/22 05:44:06;;;;;;;17.55;10.30;;;17.80;99.90;;;16.64;99.28;101128.72;2568409;30;136806;-39
2021/08/22 05:46:34;;;;;;;17.27;10.98;;;17.80;99.90;;;16.66;98.48;101127.41;2568822;30;138153;-39
2021/08/22 05:49:02;;;;;;;;;;;17.80;99.90;;;16.75;98.31;101127.84;2568940;30;136976;-39
2021/08/22 05:51:30;;;;;;;19.40;10.68;;;17.90;99.90;;;16.79;98.48;101129.03;2570649;30;138211;-39
2021/08/22 05:53:57;;;;;;;16.58;10.30;;;17.90;99.90;;;16.80;98.45;101136.22;2569715;30;137324;-38
2021/08/22 05:56:25;;;;;;;21.45;11.90;;;17.90;99.90;;;16.82;98.03;101136.78;2568582;30;138397;-39
2021/08/22 05:58:52;;;;;;;20.38;11.27;;;18.00;99.90;;;16.90;97.95;101141.06;2569953;30;137869;-39
2021/08/22 06:01:20;;;;;;;18.38;10.68;;;18.00;99.90;;;16.87;98.28;101138.81;2570213;30;138502;-40
2021/08/22 06:03:48;;;;;;;;;;;18.00;99.90;;;16.88;97.53;101148.75;2570331;30;137566;-39
2021/08/22 06:06:15;;;;;;;19.40;11.85;;;18.00;99.90;;;16.81;97.27;101139.78;2567728;30;137101;-39
2021/08/22 06:08:43;;;;;;;20.23;11.55;;;18.00;99.90;;;16.83;97.53;101143.13;2571804;30;137393;-40
2021/08/22 06:11:11;;;;;;;18.45;11.73;;;18.00;99.90;;;16.84;97.77;101142.03;2569470;30;138562;-39
2021/08/22 06:13:38;;;;;;;22.27;13.40;;;18.00;99.90;;;16.83;97.20;101149.50;2570879;30;137224;-39
2021/08/22 06:16:06;;;;;;;22.20;13.85;;;18.00;99.90;;;16.86;97.22;101148.16;2569559;30;139188;-39
2021/08/22 06:18:33;;;;;;;20.58;12.75;;;18.00;99.90;;;16.94;96.79;101155.19;2570722;30;138236;-40
2021/08/22 06:21:01;;;;;;;20.92;12.80;;;18.10;99.90;;;16.96;96.51;101164.03;2567711;30;138701;-40
2021/08/22 06:23:29;;;;;;;20.58;13.65;;;18.10;99.90;;;16.95;95.74;101162.34;2569268;30;138506;-40
2021/08/22 06:25:56;;;;;;;18.70;13.13;;;18.10;99.90;;;16.94;95.26;101155.19;2569130;30;138414;-39
2021/08/22 06:28:24;;;;;;;19.30;12.32;;;18.10;99.90;;;16.95;95.69;101167.88;2569163;30;137059;-39
2021/08/22 06:30:51;;;;;;;20.35;12.48;;;18.10;99.90;;;16.98;95.57;101167.44;2569548;30;138012;-39
2021/08/22 06:33:19;;;;;;;;;;;18.10;99.90;;;16.97;95.97;101165.69;2571931;30;137659;-39
2021/08/22 06:35:46;;;;;;;17.13;10.93;;;18.10;99.90;;;17.00;96.33;101165.25;2570342;30;138164;-39
2021/08/22 06:38:14;;;;;;;19.80;12.73;;;18.10;99.90;;;17.03;96.40;101167.53;2568406;30;136873;-39
2021/08/22 06:40:41;;;;;;;20.98;11.80;;;18.20;99.90;;;17.01;95.57;101175.22;2568519;30;137558;-39
2021/08/22 06:43:09;;;;;;;;;;;18.20;99.90;;;16.97;95.85;101166.56;2567754;30;137332;-39
2021/08/22 06:45:36;;;;;;;21.10;12.30;;;18.20;99.90;;;17.12;95.06;101179.00;2568096;30;138682;-40
2021/08/22 06:48:04;;;;;;;16.63;10.90;;;18.20;99.90;;;17.22;95.39;101172.78;2568829;30;137502;-39
2021/08/22 06:50:32;;;;;;;;;;;18.30;99.90;;;17.27;95.66;101170.16;2570865;30;138362;-40
2021/08/22 06:52:59;;;;;;;20.08;11.93;;;18.30;99.90;;;17.29;95.43;101162.47;2571061;30;137317;-40
2021/08/22 06:55:27;;;;;;;16.73;11.15;;;18.40;99.90;;;17.37;95.90;101166.72;2566588;30;138679;-39
2021/08/22 06:57:54;;;;;;;18.65;11.75;;;18.40;99.90;;;17.46;95.43;101175.41;2570515;30;137173;-39
2021/08/22 07:00:22;;;;;;;21.17;12.80;;;18.50;99.90;;;17.53;94.59;101165.88;2571479;30;138504;-39
2021/08/22 07:02:49;;;;;;;18.45;12.25;;;18.60;99.90;;;17.49;92.69;101173.00;2570629;30;136874;-39
2021/08/22 07:05:18;;;;;;;18.35;11.90;;;18.60;99.90;;;17.72;93.91;101173.91;2571458;30;137327;-39
2021/08/22 07:07:45;;;;;;;;;;;18.70;99.90;;;17.91;93.47;101168.13;2568039;30;137985;-39
2021/08/22 07:10:12;;;;;;;20.90;12.55;;;18.90;99.90;;;18.14;91.29;101167.09;2569414;30;137319;-39
2021/08/22 07:12:40;;;;;;;18.80;11.10;;;19.00;99.90;;;18.20;88.95;101168.81;2569457;30;137047;-39
2021/08/22 07:15:11;;;;;;;15.45;10.32;;;19.20;99.90;;;18.18;89.43;101173.75;2570948;30;138567;-40
2021/08/22 07:17:38;;;;;;;20.35;11.35;;;19.20;99.90;;;18.18;89.29;101181.22;2570359;30;137898;-39
2021/08/22 07:20:07;;;;;;;16.63;10.40;;;19.20;99.90;;;18.34;90.17;101176.75;2566260;30;138484;-39
2021/08/22 07:22:35;;;;;;;16.17;11.15;;;19.30;99.90;;;18.52;89.82;101168.09;2568992;30;138196;-39
2021/08/22 07:25:04;;;;;;;14.82;9.73;;;19.40;99.90;;;18.73;89.17;101181.34;2567516;30;138457;-40
2021/08/22 07:27:32;;;;;;;17.15;10.15;;;19.60;99.90;;;18.79;87.13;101186.66;2568798;30;137069;-39
2021/08/22 07:30:00;;;;;;;16.38;10.02;;;19.70;99.90;;;18.81;86.64;101178.94;2567982;30;138407;-40
2021/08/22 07:32:27;;;;;;;16.20;9.65;;;19.70;99.90;;;18.90;88.03;101181.25;2566725;30;137417;-39
2021/08/22 07:34:55;;;;;;;;;;;19.80;99.90;;;18.85;85.07;101181.22;2570169;30;137542;-40
2021/08/22 07:37:23;;;;;;;15.25;9.13;;;19.80;99.90;;;18.81;84.02;101178.94;2566777;30;138125;-39
2021/08/22 07:39:50;;;;;;;14.63;8.95;;;19.80;99.90;;;18.72;85.61;101177.75;2568250;30;138289;-39
2021/08/22 07:42:18;;;;;;;15.38;9.93;;;19.70;99.90;;;18.87;85.58;101184.53;2568748;30;136938;-39
2021/08/22 07:44:45;;;;;;;14.02;8.85;;;19.80;99.90;;;19.01;85.63;101185.81;2568355;30;138454;-40
2021/08/22 07:47:13;;;;;;;14.18;9.05;;;19.90;99.90;;;19.28;84.41;101192.44;2569403;30;136837;-39
2021/08/22 07:49:40;;;;;;;14.98;9.82;;;20.10;99.90;;;19.57;84.30;101192.13;2569046;30;138048;-39
2021/08/22 07:52:08;;;;;;;15.32;9.38;;;20.30;99.90;;;19.47;80.69;101190.94;2569574;30;138396;-39
2021/08/22 07:54:35;;;;;;;14.35;8.32;;;20.40;99.90;;;19.60;82.34;101191.59;2569969;30;138616;-40
2021/08/22 07:57:03;;;;;;;15.82;8.98;;;20.50;99.90;;;19.68;79.53;101196.66;2568971;30;137665;-40
2021/08/22 07:59:31;;;;;;;;;;;20.60;99.90;;;19.87;80.42;101187.94;2569190;30;139162;-40
2021/08/22 08:01:58;;;;;;;15.30;8.75;;;20.80;99.90;;;19.96;80.06;101186.34;2567361;30;136718;-41
2021/08/22 08:04:26;;;;;;;13.32;8.13;;;20.80;99.90;;;19.97;80.48;101194.41;2569966;30;138582;-39
2021/08/22 08:06:54;;;;;;;13.05;7.80;;;20.80;99.90;;;19.94;81.61;101197.69;2568176;30;136788;-39
2021/08/22 08:09:21;;;;;;;10.00;6.88;;;20.80;99.90;;;19.85;79.25;101199.25;2568827;30;139383;-39
2021/08/22 08:11:49;;;;;;;11.15;8.00;;;20.90;99.90;;;19.72;79.74;101196.97;2567898;30;136438;-39
2021/08/22 08:14:16;;;;;;;11.40;7.35;;;20.80;99.90;;;19.68;80.04;101197.50;2568935;30;138313;-40
2021/08/22 08:16:44;;;;;;;12.10;7.00;;;20.70;99.90;;;19.67;79.79;101204.13;2569662;30;136970;-39
2021/08/22 08:19:12;;;;;;;;;;;20.70;99.90;;;19.78;81.41;101205.03;2567670;30;138184;-44
2021/08/22 08:21:39;;;;;;;9.63;6.20;;;20.70;99.90;;;19.95;83.02;101199.38;2570548;30;137052;-40
2021/08/22 08:24:07;;;;;;;11.45;7.30;;;20.80;99.90;;;19.90;80.24;101201.22;2565887;30;138014;-39
2021/08/22 08:26:35;;;;;;;10.85;6.28;;;20.80;99.90;;;19.77;80.32;101205.28;2570122;30;137180;-39
2021/08/22 08:29:04;;;;;;;12.80;6.95;;;20.80;99.90;;;19.62;79.73;101198.53;2568817;30;137901;-39
2021/08/22 08:31:35;;;;;;;11.13;6.88;;;20.70;99.90;;;19.53;80.51;101203.75;2567921;30;137417;-39
2021/08/22 08:34:03;;;;;;;10.77;6.45;;;20.60;99.90;;;19.48;80.82;101200.91;2568721;30;137462;-40
2021/08/22 08:36:31;;;;;;;9.85;5.72;;;20.50;99.90;;;19.50;81.13;101207.03;2570418;30;136807;-39
2021/08/22 08:38:59;;;;;;;9.35;5.47;;;20.50;99.90;;;19.49;81.53;101213.63;2569271;30;138479;-39
2021/08/22 08:41:26;;;;;;;8.32;5.90;;;20.50;99.90;;;19.51;81.29;101210.63;2567362;30;136695;-39
2021/08/22 08:43:58;;;;;;;9.40;6.00;;;20.50;99.90;;;19.57;82.83;101206.78;2568406;30;138557;-38
2021/08/22 08:46:51;;;;;;;7.63;5.50;;;20.50;99.90;;;19.55;83.56;101207.06;2568794;30;137185;-39
2021/08/22 08:49:26;;;;;;;8.52;5.30;;;20.50;99.90;;;19.55;83.37;101204.31;2569420;30;138128;-40
2021/08/22 08:52:45;;;;;;;7.95;5.20;;;20.50;99.90;;;19.47;82.12;101209.47;2579584;30;137398;-42
2021/08/22 08:55:26;;;;;;;11.23;6.22;;;20.40;99.90;;;19.40;82.44;101209.69;2568806;30;138381;-42
2021/08/22 08:57:53;;;;;;;8.43;5.57;;;20.40;99.90;;;19.37;82.65;101204.69;2565647;30;137531;-41
2021/08/22 09:00:25;;;;;;;8.02;5.22;;;20.40;99.90;;;19.38;83.37;101207.22;2567566;30;137135;-41
2021/08/22 09:02:53;;;;;;;8.68;6.32;;;20.30;99.90;;;19.52;82.03;101206.75;2567555;30;137716;-42
2021/08/22 09:06:09;;;;;;;9.98;5.97;;;20.40;99.90;;;20.05;79.15;101206.06;2569713;30;138285;-42
2021/08/22 09:09:34;;;;;;;8.90;5.68;;;20.70;99.90;;;20.30;77.97;101208.16;2565751;30;137775;-42
2021/08/22 09:12:22;;;;;;;9.73;5.65;;;21.00;99.90;;;20.48;79.31;101206.84;2567237;30;138560;-41
2021/08/22 09:14:58;;;;;;;7.25;4.88;;;21.20;99.90;;;20.51;75.12;101206.31;2568514;30;138533;-41
2021/08/22 09:18:21;;;;;;;6.20;4.43;;;21.30;99.90;;;20.52;75.63;101207.13;2569048;30;138485;-41
2021/08/22 09:21:49;;;;;;;7.32;4.85;;;21.30;99.90;;;20.43;73.77;101204.06;2568249;30;138326;-42
2021/08/22 09:24:31;;;;;;;6.72;4.70;;;21.30;99.90;;;20.51;75.08;101202.69;2567725;30;137654;-42
2021/08/22 09:27:55;;;;;;;7.28;4.25;;;21.40;99.90;;;20.69;74.38;101207.75;2568005;30;137482;-42
2021/08/22 09:31:19;;;;;;;5.97;4.20;;;21.50;99.90;;;20.73;72.93;101208.06;2567865;30;137101;-41
2021/08/22 09:34:49;;;;;;;6.82;4.30;;;21.60;99.90;;;20.72;73.67;101205.56;2567322;30;137419;-42
2021/08/22 09:38:07;;;;;;;6.20;4.20;;;21.60;99.90;;;20.72;73.48;101205.56;2567928;30;139170;-42
2021/08/22 09:41:47;;;;;;;6.95;4.35;;;21.60;99.90;;;20.91;72.57;101201.22;2567904;30;137420;-41
2021/08/22 09:44:43;;;;;;;5.88;3.83;;;21.70;99.90;;;21.23;68.88;101200.16;2566848;30;137073;-41
2021/08/22 09:48:01;;;;;;;5.78;3.58;;;21.90;99.90;;;21.34;69.86;101203.78;2567856;30;137725;-42
2021/08/22 09:51:25;;;;;;;6.05;2.85;;;22.10;99.90;;;21.72;70.20;101192.44;2565409;30;137889;-41
2021/08/22 09:54:33;;;;;;;4.53;2.67;;;22.40;99.90;;;22.18;67.82;101194.28;2567887;30;138337;-41
2021/08/22 09:57:40;;;;;;;4.47;3.00;;;22.80;99.90;;;22.36;66.31;101200.34;2568425;30;137088;-42
2021/08/22 10:01:05;;;;;;;4.40;2.70;;;23.00;99.90;;;22.32;64.87;101202.84;2568097;30;136770;-42
2021/08/22 10:04:33;;;;;;;5.72;2.70;;;23.10;99.90;;;21.86;64.08;101201.03;2567026;30;138696;-41
2021/08/22 10:07:42;;;;;;;4.47;2.45;;;22.90;99.90;;;21.59;63.85;101207.66;2566427;30;137301;-40
2021/08/22 10:10:35;;;;;;;4.77;2.83;;;22.60;99.90;;;21.31;65.84;101211.81;2567609;30;139117;-41
2021/08/22 10:13:02;;;;;;;5.53;2.70;;;22.40;99.90;;;21.15;65.70;101208.19;2567775;30;137022;-41
2021/08/22 10:15:30;;;;;;;;;;;22.20;99.90;;;21.18;64.34;101197.38;2566214;30;138553;-42
2021/08/22 10:17:58;;;;;;;4.95;2.90;;;22.20;99.90;;;21.23;65.99;101204.88;2568447;30;136637;-42
2021/08/22 10:20:41;;;;;;;;;;;22.10;99.90;;;21.32;67.41;101199.59;2568362;30;138421;-39
2021/08/22 10:23:38;;;;;;;6.30;2.67;;;22.20;99.90;;;21.25;66.29;101199.91;2567725;30;137122;-40
2021/08/22 10:26:06;;;;;;;4.07;2.63;;;22.20;99.90;;;21.20;65.32;101197.09;2568563;30;139084;-41
2021/08/22 10:28:53;;;;;;;4.47;2.60;;;22.20;99.90;;;21.30;68.25;101201.81;2567987;30;137298;-41